createdAt,value
2019-04-29T00:00:57.147Z,7.23
2019-04-29T00:02:04.486Z,8.17
2019-04-29T00:03:11.448Z,8.70
2019-04-29T00:04:18.347Z,9.93
2019-04-29T00:05:25.417Z,9.50
2019-04-29T00:06:32.709Z,10.20
2019-04-29T00:07:39.805Z,8.97
2019-04-29T00:08:47.058Z,10.70
2019-04-29T00:09:54.145Z,10.30
2019-04-29T00:11:00.897Z,9.87
2019-04-29T00:12:08.085Z,10.13
2019-04-29T00:13:15.550Z,11.23
2019-04-29T00:14:22.795Z,10.33
2019-04-29T00:15:44.082Z,10.83
2019-04-29T00:17:06.962Z,8.67
2019-04-29T00:18:25.059Z,8.00
2019-04-29T00:19:54.000Z,8.47
2019-04-29T00:21:01.111Z,9.27
2019-04-29T00:22:08.212Z,10.27
2019-04-29T00:23:15.170Z,10.07
2019-04-29T00:24:21.913Z,9.83
2019-04-29T00:25:29.124Z,10.20
2019-04-29T00:26:36.317Z,10.37
2019-04-29T00:27:43.589Z,9.37
2019-04-29T00:28:50.685Z,9.27
2019-04-29T00:29:57.439Z,10.10
2019-04-29T00:31:04.628Z,9.90
2019-04-29T00:32:11.898Z,8.97
2019-04-29T00:33:18.999Z,10.43
2019-04-29T00:34:25.766Z,9.87
2019-04-29T00:35:32.846Z,11.43
2019-04-29T00:36:47.175Z,10.90
2019-04-29T00:38:11.988Z,10.97
2019-04-29T00:39:40.757Z,11.10
2019-04-29T00:41:09.095Z,8.30
2019-04-29T00:42:30.097Z,9.23
2019-04-29T00:43:42.037Z,9.70
2019-04-29T00:44:48.810Z,9.80
2019-04-29T00:45:56.006Z,10.30
2019-04-29T00:47:02.746Z,9.60
2019-04-29T00:48:09.846Z,10.43
2019-04-29T00:49:16.697Z,10.57
2019-04-29T00:50:23.437Z,9.77
2019-04-29T00:51:30.187Z,10.40
2019-04-29T00:52:37.342Z,10.73
2019-04-29T00:53:44.952Z,10.40
2019-04-29T00:54:57.194Z,9.40
2019-04-29T00:56:04.133Z,10.47
2019-04-29T00:57:10.949Z,10.10
2019-04-29T00:58:17.687Z,9.50
2019-04-29T00:59:24.833Z,9.63
2019-04-29T01:00:38.872Z,8.87
2019-04-29T01:01:46.057Z,8.90
2019-04-29T01:02:52.787Z,8.50
2019-04-29T01:03:59.922Z,9.47
2019-04-29T01:05:07.637Z,9.83
2019-04-29T01:06:14.396Z,9.80
2019-04-29T01:07:21.146Z,9.10
2019-04-29T01:08:28.624Z,8.93
2019-04-29T01:09:35.925Z,9.10
2019-04-29T01:10:43.431Z,8.23
2019-04-29T01:11:50.575Z,8.70
2019-04-29T01:12:57.337Z,8.57
2019-04-29T01:14:04.086Z,8.70
2019-04-29T01:15:11.575Z,7.43
2019-04-29T01:16:18.322Z,7.10
2019-04-29T01:17:26.418Z,7.17
2019-04-29T01:18:33.560Z,6.57
2019-04-29T01:19:40.742Z,6.13
2019-04-29T01:20:47.461Z,7.13
2019-04-29T01:21:54.582Z,6.67
2019-04-29T01:23:01.411Z,7.97
2019-04-29T01:24:08.202Z,8.27
2019-04-29T01:25:15.494Z,9.40
2019-04-29T01:26:44.200Z,8.03
2019-04-29T01:27:57.978Z,8.93
2019-04-29T01:29:05.637Z,8.10
2019-04-29T01:31:22.480Z,8.47
2019-04-29T01:32:29.239Z,8.50
2019-04-29T01:33:36.002Z,8.73
2019-04-29T01:34:53.817Z,8.40
2019-04-29T01:36:29.349Z,9.30
2019-04-29T01:37:41.779Z,7.30
2019-04-29T01:38:49.636Z,6.50
2019-04-29T01:40:06.065Z,7.40
2019-04-29T01:41:16.674Z,7.60
2019-04-29T01:42:32.823Z,8.20
2019-04-29T01:43:57.822Z,8.53
2019-04-29T01:45:05.318Z,9.08
2019-04-29T01:46:12.393Z,9.17
2019-04-29T01:47:19.237Z,9.03
2019-04-29T01:48:26.199Z,8.47
2019-04-29T01:49:33.014Z,10.07
2019-04-29T01:50:40.492Z,8.33
2019-04-29T01:51:47.318Z,8.40
2019-04-29T01:52:54.106Z,7.10
2019-04-29T01:54:01.214Z,9.00
2019-04-29T01:55:08.499Z,9.00
2019-04-29T01:56:15.603Z,9.10
2019-04-29T01:57:22.657Z,12.83
2019-04-29T01:58:29.424Z,11.83
2019-04-29T01:59:36.258Z,13.90
2019-04-29T02:00:43.485Z,14.90
2019-04-29T02:01:50.329Z,12.17
2019-04-29T02:02:57.151Z,12.53
2019-04-29T02:04:04.699Z,10.63
2019-04-29T02:05:11.786Z,11.27
2019-04-29T02:06:18.621Z,11.40
2019-04-29T02:07:26.049Z,10.60
2019-04-29T02:08:32.821Z,10.57
2019-04-29T02:09:45.938Z,9.70
2019-04-29T02:10:52.697Z,9.90
2019-04-29T02:12:01.214Z,10.43
2019-04-29T02:13:08.303Z,11.80
2019-04-29T02:14:15.058Z,10.87
2019-04-29T02:15:21.820Z,8.83
2019-04-29T02:16:28.921Z,10.20
2019-04-29T02:17:36.302Z,10.37
2019-04-29T02:18:43.973Z,10.83
2019-04-29T02:19:51.073Z,11.43
2019-04-29T02:20:57.840Z,10.80
2019-04-29T02:22:32.721Z,10.10
2019-04-29T02:23:47.764Z,11.87
2019-04-29T02:24:57.996Z,11.17
2019-04-29T02:26:05.322Z,11.77
2019-04-29T02:27:12.551Z,11.93
2019-04-29T02:28:19.304Z,11.50
2019-04-29T02:29:26.410Z,13.20
2019-04-29T02:30:52.221Z,11.47
2019-04-29T02:31:58.979Z,11.70
2019-04-29T02:33:05.757Z,11.80
2019-04-29T02:34:12.597Z,11.30
2019-04-29T02:35:19.353Z,12.40
2019-04-29T02:36:29.910Z,11.63
2019-04-29T02:37:37.933Z,12.30
2019-04-29T02:38:51.036Z,12.20
2019-04-29T02:40:04.674Z,11.03
2019-04-29T02:41:30.825Z,10.90
2019-04-29T02:42:52.729Z,11.87
2019-04-29T02:44:01.104Z,11.67
2019-04-29T02:45:12.515Z,11.67
2019-04-29T02:46:19.621Z,14.10
2019-04-29T02:47:26.397Z,13.87
2019-04-29T02:48:34.669Z,12.90
2019-04-29T02:49:42.035Z,11.57
2019-04-29T02:50:49.395Z,12.53
2019-04-29T02:51:56.511Z,12.70
2019-04-29T02:53:03.265Z,11.63
2019-04-29T02:54:10.439Z,11.10
2019-04-29T02:55:22.162Z,11.73
2019-04-29T02:56:29.293Z,12.80
2019-04-29T02:57:41.331Z,10.93
2019-04-29T02:58:58.194Z,12.13
2019-04-29T03:00:32.678Z,11.50
2019-04-29T03:01:52.995Z,12.07
2019-04-29T03:03:13.075Z,11.30
2019-04-29T03:04:22.742Z,12.63
2019-04-29T03:05:33.355Z,11.90
2019-04-29T03:06:40.221Z,11.13
2019-04-29T03:07:46.971Z,11.80
2019-04-29T03:08:53.708Z,10.63
2019-04-29T03:10:00.536Z,12.37
2019-04-29T03:11:08.057Z,11.83
2019-04-29T03:12:15.065Z,11.03
2019-04-29T03:13:22.544Z,10.30
2019-04-29T03:14:29.589Z,10.87
2019-04-29T03:15:38.328Z,10.00
2019-04-29T03:16:45.517Z,10.97
2019-04-29T03:17:59.998Z,10.60
2019-04-29T03:19:11.595Z,10.17
2019-04-29T03:20:24.204Z,10.90
2019-04-29T03:21:35.128Z,11.00
2019-04-29T03:22:43.016Z,10.00
2019-04-29T03:23:50.081Z,9.60
2019-04-29T03:24:56.995Z,10.50
2019-04-29T03:26:03.939Z,9.73
2019-04-29T03:27:11.061Z,10.60
2019-04-29T03:28:17.969Z,10.40
2019-04-29T03:29:24.846Z,10.30
2019-04-29T03:30:31.755Z,9.87
2019-04-29T03:31:39.957Z,10.37
2019-04-29T03:32:47.229Z,9.30
2019-04-29T03:33:54.621Z,9.63
2019-04-29T03:35:01.716Z,10.43
2019-04-29T03:36:09.085Z,9.67
2019-04-29T03:37:15.826Z,9.37
2019-04-29T03:38:22.589Z,9.70
2019-04-29T03:39:29.805Z,10.40
2019-04-29T03:40:36.562Z,9.80
2019-04-29T03:41:43.317Z,11.90
2019-04-29T03:42:50.087Z,9.30
2019-04-29T03:43:57.615Z,10.50
2019-04-29T03:45:04.806Z,10.30
2019-04-29T03:46:11.554Z,9.90
2019-04-29T03:47:19.248Z,10.03
2019-04-29T03:48:26.446Z,9.00
2019-04-29T03:49:33.812Z,10.10
2019-04-29T03:50:41.013Z,9.70
2019-04-29T03:51:47.771Z,9.73
2019-04-29T03:52:54.848Z,11.20
2019-04-29T03:54:01.603Z,9.63
2019-04-29T03:55:08.467Z,10.27
2019-04-29T03:56:15.244Z,10.30
2019-04-29T03:57:22.107Z,10.60
2019-04-29T03:58:28.868Z,10.20
2019-04-29T03:59:35.667Z,11.23
2019-04-29T04:00:44.695Z,10.87
2019-04-29T04:02:10.994Z,11.07
2019-04-29T04:03:36.946Z,10.47
2019-04-29T04:05:01.319Z,9.27
2019-04-29T04:06:26.883Z,10.50
2019-04-29T04:07:43.627Z,10.17
2019-04-29T04:09:05.519Z,10.27
2019-04-29T04:10:03.769Z,11.00
2019-04-29T04:11:12.266Z,10.13
2019-04-29T04:12:19.047Z,10.80
2019-04-29T04:13:26.170Z,10.27
2019-04-29T04:14:33.255Z,9.90
2019-04-29T04:15:40.202Z,9.70
2019-04-29T04:17:15.009Z,9.70
2019-04-29T04:18:26.664Z,10.67
2019-04-29T04:19:33.970Z,10.50
2019-04-29T04:20:40.792Z,9.80
2019-04-29T04:21:47.928Z,10.07
2019-04-29T04:22:54.701Z,9.30
2019-04-29T04:24:01.526Z,9.83
2019-04-29T04:25:08.605Z,9.03
2019-04-29T04:26:15.720Z,9.50
2019-04-29T04:27:22.633Z,11.10
2019-04-29T04:28:29.507Z,8.60
2019-04-29T04:29:36.235Z,10.33
2019-04-29T04:30:43.299Z,11.07
2019-04-29T04:31:50.396Z,9.57
2019-04-29T04:32:57.468Z,9.47
2019-04-29T04:34:04.572Z,9.70
2019-04-29T04:35:11.858Z,8.90
2019-04-29T04:36:18.630Z,11.80
2019-04-29T04:37:25.456Z,11.00
2019-04-29T04:38:32.332Z,9.80
2019-04-29T04:39:40.978Z,9.87
2019-04-29T04:40:58.018Z,9.90
2019-04-29T04:42:04.728Z,9.17
2019-04-29T04:43:11.620Z,10.83
2019-04-29T04:44:18.431Z,10.00
2019-04-29T04:45:25.402Z,8.80
2019-04-29T04:46:32.517Z,8.97
2019-04-29T04:47:39.409Z,9.47
2019-04-29T04:48:46.512Z,10.27
2019-04-29T04:49:53.745Z,10.70
2019-04-29T04:51:00.479Z,9.90
2019-04-29T04:52:07.251Z,11.13
2019-04-29T04:53:14.022Z,9.43
2019-04-29T04:54:20.841Z,10.17
2019-04-29T04:55:30.658Z,10.73
2019-04-29T04:56:37.416Z,12.50
2019-04-29T04:57:44.329Z,11.30
2019-04-29T04:58:51.068Z,9.43
2019-04-29T04:59:57.947Z,10.50
2019-04-29T05:02:25.912Z,9.97
2019-04-29T05:03:32.982Z,9.23
2019-04-29T05:04:40.142Z,8.90
2019-04-29T05:05:47.012Z,9.53
2019-04-29T05:06:54.082Z,9.00
2019-04-29T05:08:01.571Z,9.57
2019-04-29T05:09:08.958Z,8.93
2019-04-29T05:10:16.339Z,9.50
2019-04-29T05:11:23.398Z,9.33
2019-04-29T05:12:30.215Z,8.23
2019-04-29T05:13:37.674Z,10.07
2019-04-29T05:14:44.734Z,10.00
2019-04-29T05:15:51.837Z,8.60
2019-04-29T05:16:58.585Z,8.13
2019-04-29T05:18:05.303Z,8.43
2019-04-29T05:19:12.064Z,10.67
2019-04-29T05:20:18.870Z,8.10
2019-04-29T05:21:25.669Z,9.20
2019-04-29T05:22:32.542Z,7.40
2019-04-29T05:23:41.738Z,8.30
2019-04-29T05:24:48.655Z,7.40
2019-04-29T05:25:56.161Z,7.87
2019-04-29T05:27:02.879Z,7.97
2019-04-29T05:28:09.922Z,8.30
2019-04-29T05:29:16.706Z,8.50
2019-04-29T05:30:23.913Z,9.27
2019-04-29T05:31:31.239Z,9.00
2019-04-29T05:32:38.347Z,10.07
2019-04-29T05:33:45.054Z,9.17
2019-04-29T05:34:55.020Z,9.83
2019-04-29T05:36:19.555Z,8.10
2019-04-29T05:37:32.528Z,8.50
2019-04-29T05:38:52.301Z,10.30
2019-04-29T05:39:59.150Z,9.50
2019-04-29T05:41:06.126Z,9.73
2019-04-29T05:42:16.208Z,9.47
2019-04-29T05:43:33.460Z,9.70
2019-04-29T05:44:59.658Z,10.97
2019-04-29T05:46:25.731Z,9.70
2019-04-29T05:47:36.788Z,10.40
2019-04-29T05:48:43.942Z,10.33
2019-04-29T05:50:11.764Z,10.40
2019-04-29T05:51:47.962Z,11.23
2019-04-29T05:53:25.737Z,11.43
2019-04-29T05:54:33.581Z,11.63
2019-04-29T05:55:40.697Z,11.77
2019-04-29T05:56:47.611Z,11.50
2019-04-29T05:58:02.933Z,11.47
2019-04-29T05:59:08.481Z,11.67
2019-04-29T06:00:18.890Z,11.43
2019-04-29T06:01:26.180Z,10.43
2019-04-29T06:02:36.320Z,10.50
2019-04-29T06:03:44.192Z,10.93
2019-04-29T06:04:52.389Z,11.43
2019-04-29T06:05:58.989Z,12.37
2019-04-29T06:07:05.887Z,11.70
2019-04-29T06:08:12.651Z,10.80
2019-04-29T06:09:19.383Z,12.30
2019-04-29T06:10:26.166Z,11.57
2019-04-29T06:11:33.278Z,11.37
2019-04-29T06:12:40.202Z,11.73
2019-04-29T06:13:47.304Z,11.13
2019-04-29T06:14:54.386Z,10.83
2019-04-29T06:16:01.235Z,10.73
2019-04-29T06:17:07.975Z,11.13
2019-04-29T06:18:17.696Z,11.53
2019-04-29T06:19:23.558Z,11.23
2019-04-29T06:20:30.363Z,12.23
2019-04-29T06:21:37.089Z,12.73
2019-04-29T06:22:43.843Z,12.67
2019-04-29T06:23:50.602Z,12.00
2019-04-29T06:24:57.349Z,12.43
2019-04-29T06:26:04.081Z,12.70
2019-04-29T06:27:10.818Z,12.70
2019-04-29T06:28:21.586Z,14.13
2019-04-29T06:29:26.922Z,13.90
2019-04-29T06:30:36.860Z,13.80
2019-04-29T06:31:42.469Z,13.53
2019-04-29T06:32:49.535Z,13.77
2019-04-29T06:33:56.301Z,13.40
2019-04-29T06:35:03.195Z,13.40
2019-04-29T06:36:10.403Z,13.43
2019-04-29T06:37:17.684Z,13.10
2019-04-29T06:38:24.919Z,13.00
2019-04-29T06:39:32.045Z,14.67
2019-04-29T06:40:38.830Z,13.50
2019-04-29T06:41:46.974Z,13.60
2019-04-29T06:42:55.176Z,12.00
2019-04-29T06:44:06.696Z,12.03
2019-04-29T06:45:11.036Z,14.90
2019-04-29T06:46:18.280Z,13.20
2019-04-29T06:47:25.384Z,14.40
2019-04-29T06:48:32.464Z,11.53
2019-04-29T06:49:39.256Z,11.70
2019-04-29T06:50:49.563Z,13.57
2019-04-29T06:51:55.233Z,12.20
2019-04-29T06:53:01.988Z,12.40
2019-04-29T06:54:09.108Z,12.97
2019-04-29T06:55:15.970Z,11.43
2019-04-29T06:56:23.137Z,11.07
2019-04-29T06:57:30.630Z,10.90
2019-04-29T06:58:38.438Z,11.10
2019-04-29T06:59:47.518Z,12.00
2019-04-29T07:00:55.971Z,10.83
2019-04-29T07:02:02.500Z,11.73
2019-04-29T07:03:09.228Z,10.47
2019-04-29T07:04:15.986Z,11.53
2019-04-29T07:05:23.043Z,10.77
2019-04-29T07:06:30.219Z,10.30
2019-04-29T07:07:36.992Z,12.03
2019-04-29T07:08:43.717Z,10.73
2019-04-29T07:09:50.445Z,10.30
2019-04-29T07:11:01.098Z,13.23
2019-04-29T07:12:08.091Z,10.43
2019-04-29T07:13:17.966Z,10.33
2019-04-29T07:14:24.148Z,12.07
2019-04-29T07:15:30.908Z,9.93
2019-04-29T07:16:37.639Z,10.10
2019-04-29T07:17:44.735Z,11.20
2019-04-29T07:18:53.790Z,10.00
2019-04-29T07:20:02.084Z,9.27
2019-04-29T07:21:11.864Z,9.07
2019-04-29T07:22:20.768Z,9.30
2019-04-29T07:23:25.696Z,8.20
2019-04-29T07:24:32.470Z,8.37
2019-04-29T07:25:39.567Z,7.87
2019-04-29T07:26:46.317Z,7.57
2019-04-29T07:27:53.068Z,8.40
2019-04-29T07:28:59.950Z,6.93
2019-04-29T07:30:08.377Z,7.43
2019-04-29T07:31:15.575Z,8.93
2019-04-29T07:32:23.102Z,7.60
2019-04-29T07:33:29.887Z,5.83
2019-04-29T07:34:39.494Z,6.93
2019-04-29T07:35:48.049Z,6.00
2019-04-29T07:36:57.712Z,5.70
2019-04-29T07:38:04.416Z,4.60
2019-04-29T07:39:11.257Z,4.70
2019-04-29T07:40:21.087Z,4.60
2019-04-29T07:41:28.171Z,4.13
2019-04-29T07:42:35.457Z,4.23
2019-04-29T07:43:43.031Z,4.23
2019-04-29T07:45:08.784Z,3.90
2019-04-29T07:46:30.399Z,5.13
2019-04-29T07:47:37.892Z,4.40
2019-04-29T07:48:45.054Z,5.20
2019-04-29T07:49:53.029Z,5.73
2019-04-29T07:51:04.228Z,4.67
2019-04-29T07:52:09.826Z,5.27
2019-04-29T07:53:21.921Z,5.10
2019-04-29T07:54:25.710Z,6.60
2019-04-29T07:55:32.636Z,5.63
2019-04-29T07:56:42.277Z,5.50
2019-04-29T07:57:52.170Z,4.73
2019-04-29T07:58:58.849Z,4.80
2019-04-29T08:00:08.583Z,5.40
2019-04-29T08:01:15.442Z,6.00
2019-04-29T08:02:22.473Z,6.67
2019-04-29T08:03:29.224Z,6.73
2019-04-29T08:04:36.353Z,7.03
2019-04-29T08:05:43.767Z,6.57
2019-04-29T08:06:51.157Z,7.50
2019-04-29T08:07:59.719Z,6.90
2019-04-29T08:09:09.721Z,7.90
2019-04-29T08:10:23.560Z,7.23
2019-04-29T08:11:26.227Z,6.50
2019-04-29T08:12:35.610Z,8.30
2019-04-29T08:13:44.632Z,6.73
2019-04-29T08:14:53.401Z,6.97
2019-04-29T08:16:01.337Z,7.23
2019-04-29T08:17:08.143Z,7.30
2019-04-29T08:18:16.148Z,8.10
2019-04-29T08:19:24.719Z,7.10
2019-04-29T08:20:35.423Z,7.33
2019-04-29T08:21:40.919Z,7.90
2019-04-29T08:22:47.718Z,7.87
2019-04-29T08:23:54.659Z,7.27
2019-04-29T08:25:01.414Z,7.37
2019-04-29T08:26:08.179Z,7.10
2019-04-29T08:27:14.923Z,7.63
2019-04-29T08:28:22.092Z,7.77
2019-04-29T08:29:30.831Z,7.97
2019-04-29T08:30:41.879Z,6.43
2019-04-29T08:31:47.001Z,5.93
2019-04-29T08:32:54.182Z,7.20
2019-04-29T08:34:01.355Z,6.40
2019-04-29T08:35:08.472Z,6.57
2019-04-29T08:36:15.219Z,5.60
2019-04-29T08:37:24.864Z,5.97
2019-04-29T08:38:30.498Z,7.80
2019-04-29T08:39:37.588Z,7.13
2019-04-29T08:40:45.292Z,6.00
2019-04-29T08:41:53.279Z,7.07
2019-04-29T08:43:15.919Z,5.90
2019-04-29T08:44:54.728Z,5.97
2019-04-29T08:46:02.635Z,5.90
2019-04-29T08:47:17.030Z,5.47
2019-04-29T08:48:24.102Z,5.67
2019-04-29T08:49:31.207Z,5.20
2019-04-29T08:50:37.929Z,5.20
2019-04-29T08:51:44.655Z,5.43
2019-04-29T08:52:51.410Z,4.20
2019-04-29T08:53:58.276Z,3.50
2019-04-29T08:55:05.869Z,3.70
2019-04-29T08:56:12.999Z,3.00
2019-04-29T08:57:19.722Z,2.83
2019-04-29T08:58:26.560Z,4.10
2019-04-29T08:59:33.917Z,3.47
2019-04-29T09:00:41.090Z,3.23
2019-04-29T09:01:48.311Z,2.50
2019-04-29T09:02:55.089Z,3.13
2019-04-29T09:04:02.124Z,3.60
2019-04-29T09:05:11.285Z,3.27
2019-04-29T09:06:17.967Z,2.67
2019-04-29T09:07:25.292Z,2.93
2019-04-29T09:08:33.004Z,2.73
2019-04-29T09:09:40.460Z,3.50
2019-04-29T09:10:47.868Z,3.13
2019-04-29T09:11:54.663Z,3.13
2019-04-29T09:13:01.800Z,3.00
2019-04-29T09:14:08.545Z,3.07
2019-04-29T09:15:36.357Z,3.77
2019-04-29T09:16:43.096Z,3.37
2019-04-29T09:17:55.568Z,3.33
2019-04-29T09:19:03.334Z,2.80
2019-04-29T09:20:10.889Z,3.30
2019-04-29T09:21:18.099Z,4.10
2019-04-29T09:22:27.129Z,3.23
2019-04-29T09:23:34.855Z,3.23
2019-04-29T09:25:00.481Z,2.90
2019-04-29T09:26:41.565Z,3.33
2019-04-29T09:27:49.392Z,3.10
2019-04-29T09:28:59.748Z,3.40
2019-04-29T09:30:05.166Z,3.30
2019-04-29T09:31:11.901Z,3.43
2019-04-29T09:32:19.056Z,2.83
2019-04-29T09:33:25.859Z,3.30
2019-04-29T09:34:32.968Z,3.47
2019-04-29T09:35:40.585Z,2.90
2019-04-29T09:36:49.707Z,2.60
2019-04-29T09:37:58.456Z,2.90
2019-04-29T09:39:06.500Z,2.60
2019-04-29T09:40:16.507Z,3.13
2019-04-29T09:41:34.968Z,4.07
2019-04-29T09:43:14.847Z,3.53
2019-04-29T09:44:31.348Z,3.30
2019-04-29T09:45:43.280Z,3.37
2019-04-29T09:46:50.081Z,3.30
2019-04-29T09:47:57.092Z,3.20
2019-04-29T09:49:03.918Z,3.73
2019-04-29T09:50:11.397Z,3.20
2019-04-29T09:51:22.182Z,3.30
2019-04-29T09:52:26.621Z,2.63
2019-04-29T09:53:33.425Z,3.40
2019-04-29T09:54:40.814Z,3.17
2019-04-29T09:55:47.553Z,2.90
2019-04-29T09:56:54.277Z,3.37
2019-04-29T09:58:01.539Z,3.37
2019-04-29T09:59:28.572Z,3.07
2019-04-29T10:00:51.646Z,2.80
2019-04-29T10:02:18.180Z,3.37
2019-04-29T10:03:58.042Z,4.27
2019-04-29T10:05:23.858Z,3.87
2019-04-29T10:06:33.422Z,3.03
2019-04-29T10:07:40.505Z,3.47
2019-04-29T10:08:48.048Z,3.00
2019-04-29T10:09:57.393Z,3.17
2019-04-29T10:11:03.661Z,2.80
2019-04-29T10:12:11.274Z,2.53
2019-04-29T10:13:18.749Z,2.80
2019-04-29T10:14:25.554Z,3.27
2019-04-29T10:15:41.027Z,3.13
2019-04-29T10:16:57.254Z,3.47
2019-04-29T10:18:11.211Z,3.93
2019-04-29T10:19:42.996Z,3.50
2019-04-29T10:20:56.706Z,3.37
2019-04-29T10:22:04.092Z,4.03
2019-04-29T10:23:10.847Z,3.53
2019-04-29T10:24:18.762Z,3.27
2019-04-29T10:25:25.643Z,3.50
2019-04-29T10:26:32.371Z,3.23
2019-04-29T10:27:39.478Z,3.50
2019-04-29T10:29:00.037Z,3.90
2019-04-29T10:30:08.253Z,3.27
2019-04-29T10:31:15.308Z,3.77
2019-04-29T10:32:22.874Z,3.53
2019-04-29T10:33:30.124Z,3.27
2019-04-29T10:34:37.300Z,3.40
2019-04-29T10:35:45.088Z,3.27
2019-04-29T10:36:53.656Z,3.33
2019-04-29T10:38:02.803Z,3.40
2019-04-29T10:39:30.960Z,2.70
2019-04-29T10:40:56.476Z,3.10
2019-04-29T10:42:04.530Z,2.80
2019-04-29T10:43:29.404Z,2.63
2019-04-29T10:44:55.189Z,2.47
2019-04-29T10:46:27.262Z,3.30
2019-04-29T10:47:50.164Z,3.30
2019-04-29T10:49:07.861Z,3.10
2019-04-29T10:50:19.126Z,2.83
2019-04-29T10:51:28.636Z,2.77
2019-04-29T10:52:38.645Z,2.87
2019-04-29T10:53:46.722Z,2.80
2019-04-29T10:54:55.398Z,3.07
2019-04-29T10:56:05.667Z,3.30
2019-04-29T10:57:14.799Z,3.23
2019-04-29T10:58:22.033Z,2.87
2019-04-29T10:59:35.976Z,2.83
2019-04-29T11:01:39.672Z,2.50
2019-04-29T11:02:49.371Z,3.27
2019-04-29T11:03:55.819Z,3.20
2019-04-29T11:05:57.419Z,3.00
2019-04-29T11:06:51.682Z,3.20
2019-04-29T11:08:02.638Z,3.20
2019-04-29T11:09:28.978Z,3.17
2019-04-29T11:10:35.816Z,3.63
2019-04-29T11:11:43.551Z,3.47
2019-04-29T11:12:51.191Z,4.00
2019-04-29T11:14:01.523Z,4.30
2019-04-29T11:15:09.897Z,3.27
2019-04-29T11:16:16.599Z,3.17
2019-04-29T11:17:25.806Z,2.90
2019-04-29T11:18:32.910Z,3.27
2019-04-29T11:19:41.626Z,4.10
2019-04-29T11:20:48.935Z,3.40
2019-04-29T11:22:02.258Z,3.40
2019-04-29T11:23:26.102Z,3.70
2019-04-29T11:24:50.845Z,3.80
2019-04-29T11:26:34.933Z,4.10
2019-04-29T11:27:48.874Z,3.87
2019-04-29T11:28:56.794Z,4.57
2019-04-29T11:30:05.511Z,4.10
2019-04-29T11:31:14.025Z,4.33
2019-04-29T11:32:31.495Z,4.10
2019-04-29T11:33:45.631Z,4.70
2019-04-29T11:35:29.824Z,3.90
2019-04-29T11:36:38.991Z,4.60
2019-04-29T11:37:45.707Z,4.40
2019-04-29T11:38:52.816Z,5.00
2019-04-29T11:40:00.079Z,4.73
2019-04-29T11:41:07.020Z,4.10
2019-04-29T11:42:14.849Z,5.00
2019-04-29T11:43:22.537Z,5.00
2019-04-29T11:44:31.846Z,4.60
2019-04-29T11:45:40.321Z,4.50
2019-04-29T11:46:48.991Z,5.03
2019-04-29T11:47:55.880Z,5.60
2019-04-29T11:49:04.822Z,5.13
2019-04-29T11:50:20.843Z,4.40
2019-04-29T11:52:09.325Z,4.60
2019-04-29T11:53:04.261Z,5.87
2019-04-29T11:54:12.830Z,4.77
2019-04-29T11:55:20.261Z,5.20
2019-04-29T11:56:27.787Z,5.27
2019-04-29T11:57:47.246Z,4.90
2019-04-29T11:59:09.752Z,4.50
2019-04-29T12:00:42.230Z,4.67
2019-04-29T12:02:07.353Z,5.40
2019-04-29T12:03:18.968Z,4.73
2019-04-29T12:04:35.576Z,5.27
2019-04-29T12:05:46.296Z,5.20
2019-04-29T12:06:56.341Z,4.63
2019-04-29T12:08:05.064Z,5.60
2019-04-29T12:09:11.082Z,5.73
2019-04-29T12:10:17.857Z,5.70
2019-04-29T12:11:28.170Z,5.47
2019-04-29T12:12:33.351Z,5.13
2019-04-29T12:13:47.014Z,4.97
2019-04-29T12:15:13.753Z,4.57
2019-04-29T12:16:31.795Z,5.20
2019-04-29T12:17:56.448Z,5.80
2019-04-29T12:19:11.522Z,5.93
2019-04-29T12:20:24.101Z,6.03
2019-04-29T12:21:33.068Z,6.30
2019-04-29T12:22:48.147Z,5.90
2019-04-29T12:23:52.151Z,4.97
2019-04-29T12:24:58.049Z,5.17
2019-04-29T12:26:04.995Z,5.13
2019-04-29T12:27:14.874Z,5.80
2019-04-29T12:28:21.060Z,5.50
2019-04-29T12:29:27.803Z,5.50
2019-04-29T12:30:38.481Z,5.87
2019-04-29T12:32:03.097Z,6.43
2019-04-29T12:33:21.515Z,7.00
2019-04-29T12:34:50.322Z,6.10
2019-04-29T12:36:03.191Z,6.57
2019-04-29T12:37:20.325Z,6.30
2019-04-29T12:38:52.275Z,6.70
2019-04-29T12:40:19.997Z,6.80
2019-04-29T12:42:04.465Z,7.47
2019-04-29T12:43:32.320Z,6.30
2019-04-29T12:45:03.942Z,6.20
2019-04-29T12:46:18.784Z,6.70
2019-04-29T12:47:33.808Z,6.90
2019-04-29T12:48:41.038Z,6.77
2019-04-29T12:49:48.222Z,7.50
2019-04-29T12:50:57.618Z,6.73
2019-04-29T12:52:03.721Z,6.63
2019-04-29T12:53:10.788Z,6.83
2019-04-29T12:54:18.803Z,7.70
2019-04-29T12:55:44.329Z,6.13
2019-04-29T12:56:43.163Z,5.87
2019-04-29T12:57:51.497Z,6.23
2019-04-29T12:59:00.137Z,6.10
2019-04-29T13:00:09.827Z,7.30
2019-04-29T13:01:50.382Z,7.17
2019-04-29T13:03:13.019Z,7.07
2019-04-29T13:04:51.540Z,7.33
2019-04-29T13:06:09.867Z,7.20
2019-04-29T13:07:38.978Z,6.80
2019-04-29T13:08:48.286Z,6.17
2019-04-29T13:09:57.195Z,6.67
2019-04-29T13:11:05.632Z,6.73
2019-04-29T13:12:19.398Z,7.00
2019-04-29T13:13:22.031Z,6.80
2019-04-29T13:14:33.240Z,6.47
2019-04-29T13:15:56.645Z,7.37
2019-04-29T13:17:14.745Z,7.77
2019-04-29T13:18:29.308Z,7.90
2019-04-29T13:19:46.087Z,8.10
2019-04-29T13:20:53.689Z,7.83
2019-04-29T13:22:01.137Z,7.63
2019-04-29T13:23:17.754Z,8.50
2019-04-29T13:24:24.137Z,9.30
2019-04-29T13:25:26.790Z,8.90
2019-04-29T13:26:37.348Z,10.03
2019-04-29T13:27:42.327Z,10.03
2019-04-29T13:29:00.358Z,8.87
2019-04-29T13:29:58.617Z,9.80
2019-04-29T13:31:05.852Z,9.50
2019-04-29T13:32:13.611Z,8.90
2019-04-29T13:33:20.336Z,8.10
2019-04-29T13:34:35.207Z,9.23
2019-04-29T13:35:48.285Z,10.40
2019-04-29T13:37:06.173Z,9.60
2019-04-29T13:37:59.132Z,10.23
2019-04-29T13:39:09.488Z,9.60
2019-04-29T13:40:17.240Z,8.53
2019-04-29T13:41:25.959Z,10.57
2019-04-29T13:42:32.683Z,8.50
2019-04-29T13:43:40.187Z,10.50
2019-04-29T13:45:05.107Z,9.80
2019-04-29T13:46:14.184Z,9.30
2019-04-29T13:47:35.637Z,8.70
2019-04-29T13:49:12.428Z,9.27
2019-04-29T13:50:23.573Z,8.83
2019-04-29T13:51:35.913Z,9.60
2019-04-29T13:52:35.656Z,9.47
2019-04-29T13:53:42.404Z,9.83
2019-04-29T13:54:49.186Z,9.10
2019-04-29T13:56:10.987Z,9.90
2019-04-29T13:57:08.939Z,9.00
2019-04-29T13:58:13.919Z,9.03
2019-04-29T13:59:28.952Z,9.90
2019-04-29T14:00:45.446Z,9.40
2019-04-29T14:02:05.709Z,8.33
2019-04-29T14:03:14.083Z,10.00
2019-04-29T14:04:26.228Z,9.77
2019-04-29T14:05:36.721Z,9.90
2019-04-29T14:06:56.171Z,10.10
2019-04-29T14:07:54.331Z,10.50
2019-04-29T14:09:03.862Z,9.90
2019-04-29T14:10:14.798Z,9.37
2019-04-29T14:11:21.997Z,9.63
2019-04-29T14:12:48.261Z,9.40
2019-04-29T14:13:38.910Z,8.80
2019-04-29T14:14:45.086Z,9.00
2019-04-29T14:15:52.431Z,8.63
2019-04-29T14:17:17.087Z,9.13
2019-04-29T14:18:11.578Z,8.27
2019-04-29T14:19:20.476Z,8.80
2019-04-29T14:20:26.577Z,8.40
2019-04-29T14:21:33.764Z,9.10
2019-04-29T14:22:40.935Z,10.20
2019-04-29T14:23:48.418Z,8.30
2019-04-29T14:24:55.428Z,9.20
2019-04-29T14:26:02.173Z,8.30
2019-04-29T14:27:23.682Z,9.67
2019-04-29T14:28:18.249Z,9.27
2019-04-29T14:29:28.418Z,10.30
2019-04-29T14:30:38.953Z,10.50
2019-04-29T14:31:42.298Z,11.07
2019-04-29T14:32:51.870Z,9.63
2019-04-29T14:34:03.962Z,10.50
2019-04-29T14:35:17.955Z,10.10
2019-04-29T14:36:26.326Z,10.50
2019-04-29T14:37:33.534Z,10.23
2019-04-29T14:38:41.109Z,8.90
2019-04-29T14:39:48.922Z,11.00
2019-04-29T14:40:55.750Z,10.70
2019-04-29T14:42:07.621Z,11.13
2019-04-29T14:43:28.590Z,10.50
2019-04-29T14:44:42.054Z,10.10
2019-04-29T14:46:23.299Z,10.10
2019-04-29T14:47:48.392Z,10.90
2019-04-29T14:49:06.239Z,11.63
2019-04-29T14:50:15.539Z,10.20
2019-04-29T14:51:22.421Z,10.43
2019-04-29T14:52:29.337Z,12.83
2019-04-29T14:53:36.614Z,12.07
2019-04-29T14:54:43.703Z,11.20
2019-04-29T14:55:50.592Z,12.60
2019-04-29T14:56:57.835Z,12.00
2019-04-29T14:58:05.008Z,10.70
2019-04-29T14:59:11.849Z,12.80
2019-04-29T15:00:30.016Z,11.70
2019-04-29T15:01:46.140Z,12.10
2019-04-29T15:02:55.910Z,11.90
2019-04-29T15:04:17.983Z,13.73
2019-04-29T15:05:16.572Z,12.57
2019-04-29T15:06:23.661Z,11.67
2019-04-29T15:07:36.343Z,11.60
2019-04-29T15:08:43.348Z,13.17
2019-04-29T15:09:58.096Z,12.70
2019-04-29T15:11:08.977Z,12.03
2019-04-29T15:12:21.728Z,12.80
2019-04-29T15:13:29.378Z,12.30
2019-04-29T15:14:47.720Z,12.10
2019-04-29T15:16:20.546Z,12.80
2019-04-29T15:17:40.524Z,10.97
2019-04-29T15:18:53.074Z,11.60
2019-04-29T15:20:08.531Z,12.00
2019-04-29T15:21:34.535Z,11.67
2019-04-29T15:22:42.038Z,12.17
2019-04-29T15:23:48.801Z,13.03
2019-04-29T15:24:56.519Z,11.97
2019-04-29T15:26:03.406Z,13.80
2019-04-29T15:27:10.561Z,14.67
2019-04-29T15:28:18.952Z,13.13
2019-04-29T15:29:25.949Z,13.40
2019-04-29T15:30:36.964Z,13.90